Simcoe, North Dakota
Current Conditions -  °F | °C
As of 5:54 PM on Friday 31 Oct 2014 (Local Time) from KMOT Reporting Station
Clear Clear  
Wind Chill: 29°   Ceiling: Unl
Heat Index: 39°   Visibility: 10mi
Dew Point: 14°   Wind: 20mph
Humidity: 36%   Direction: 130°SE
Pressure: 30.13"   Gusts: 24mph
Location:  48.2524°N, 100.783°W
Report Text: KMOT 312254Z AUTO 13017G21KT 10SM CLR 04/M10 A3013 RMK AO2 PK WND 13028/2207 SLP231 T00391100
Loading
Personal Weather Stations






























Interactive Weather Map
Tropical Storm Tracking
New forecast layout! Learn more

10-Day Weather Forecast

Advertisements
Track Severe Weather on mobile